Time;durP1;ratioP1;P1;durP2;ratioP2;P2;SDS_P1;SDS_P2;PMS_P1;PMS_P2;Temp;Humidity;BMP_temperature;BMP_pressure;BME280_temperature;BME280_humidity;BME280_pressure;Samples;Min_cycle;Max_cycle;Signal;HPM_P1;HPM_P2
2022/05/19 00:02:00;;;;;;;8.93;8.10;;;22.30;81.30;;;;;;4993373;28;20045;-60
2022/05/19 00:04:26;;;;;;;8.75;7.95;;;22.20;82.00;;;;;;4992078;28;20046;-59
2022/05/19 00:06:52;;;;;;;9.73;7.18;;;22.20;81.60;;;;;;4992151;28;20385;-57
2022/05/19 00:09:18;;;;;;;8.63;7.57;;;22.10;81.60;;;;;;4992380;28;20030;-60
2022/05/19 00:11:46;;;;;;;9.45;8.32;;;22.10;81.50;;;;;;4993674;28;20106;-61
2022/05/19 00:14:12;;;;;;;9.13;8.07;;;22.00;81.70;;;;;;4992972;28;20577;-60
2022/05/19 00:16:39;;;;;;;12.15;7.63;;;21.90;81.70;;;;;;4993107;28;20418;-60
2022/05/19 00:19:05;;;;;;;8.35;7.55;;;21.80;81.90;;;;;;4993673;28;20074;-60
2022/05/19 00:21:31;;;;;;;8.82;7.32;;;21.80;82.00;;;;;;4993773;28;20095;-61
2022/05/19 00:23:56;;;;;;;14.68;8.07;;;21.70;82.10;;;;;;4993733;28;20117;-59
2022/05/19 00:26:22;;;;;;;8.57;7.78;;;21.70;82.20;;;;;;4993016;28;20121;-61
2022/05/19 00:28:47;;;;;;;13.35;11.05;;;21.70;82.10;;;;;;4993053;28;20078;-60
2022/05/19 00:31:13;;;;;;;19.38;14.25;;;21.70;82.30;;;;;;4993074;28;20478;-60
2022/05/19 00:33:39;;;;;;;13.15;10.13;;;21.60;82.70;;;;;;4992364;28;20070;-60
2022/05/19 00:36:17;;;;;;;10.55;8.93;;;21.60;82.90;;;;;;4991978;28;20145;-60
2022/05/19 00:38:43;;;;;;;8.43;7.50;;;21.50;83.00;;;;;;4991231;28;20037;-60
2022/05/19 00:41:10;;;;;;;8.88;7.47;;;21.50;83.10;;;;;;4993270;28;20038;-61
2022/05/19 00:43:40;;;;;;;9.35;7.63;;;21.50;83.30;;;;;;4993259;28;20040;-61
2022/05/19 00:46:23;;;;;;;10.82;8.40;;;21.50;83.20;;;;;;4992303;28;20041;-61
2022/05/19 00:48:57;;;;;;;8.40;7.60;;;21.50;83.20;;;;;;4993613;28;20040;-59
2022/05/19 00:51:33;;;;;;;8.77;7.60;;;21.40;83.30;;;;;;4993674;28;20126;-59
2022/05/19 00:53:58;;;;;;;8.75;7.78;;;21.40;83.20;;;;;;4993076;28;20030;-61
2022/05/19 00:56:29;;;;;;;8.90;8.00;;;21.40;83.30;;;;;;4992001;28;20043;-60
2022/05/19 00:59:05;;;;;;;9.32;7.15;;;21.40;83.40;;;;;;4993042;28;20041;-60
2022/05/19 01:01:32;;;;;;;8.88;7.85;;;21.30;83.30;;;;;;4975219;28;20055;-61
2022/05/19 01:04:25;;;;;;;10.38;7.28;;;21.20;83.30;;;;;;4975066;28;20038;-60
2022/05/19 01:06:55;;;;;;;8.85;7.75;;;21.20;83.70;;;;;;4974884;28;20035;-62
2022/05/19 01:09:21;;;;;;;9.10;7.88;;;21.20;83.60;;;;;;4986323;28;20034;-58
2022/05/19 01:11:52;;;;;;;8.70;7.45;;;21.20;83.60;;;;;;4993098;28;20049;-61
2022/05/19 01:14:17;;;;;;;8.68;7.65;;;21.20;83.70;;;;;;4992719;28;20469;-58
2022/05/19 01:16:43;;;;;;;8.80;7.82;;;21.10;83.80;;;;;;4995315;28;20034;-57
2022/05/19 01:19:42;;;;;;;8.02;7.07;;;21.10;84.40;;;;;;4997500;28;20057;-58
2022/05/19 01:22:27;;;;;;;8.05;7.20;;;21.00;83.90;;;;;;4977846;28;20545;-58
2022/05/19 01:25:16;;;;;;;8.40;7.63;;;21.00;83.90;;;;;;4982157;28;20046;-60
2022/05/19 01:27:42;;;;;;;11.63;7.45;;;21.00;84.20;;;;;;4996030;28;20034;-59
2022/05/19 01:30:10;;;;;;;10.95;7.90;;;20.90;84.00;;;;;;4994906;28;20553;-60
2022/05/19 01:32:36;;;;;;;9.02;7.47;;;20.90;84.00;;;;;;4995058;28;20081;-60
2022/05/19 01:35:02;;;;;;;9.95;7.32;;;20.90;84.00;;;;;;4996462;28;20038;-57
2022/05/19 01:37:28;;;;;;;10.15;7.15;;;20.80;84.70;;;;;;4995458;28;20022;-61
2022/05/19 01:40:00;;;;;;;10.13;7.05;;;20.80;85.10;;;;;;4996466;28;20054;-62
2022/05/19 01:42:47;;;;;;;10.60;7.70;;;20.80;85.20;;;;;;4996216;28;20426;-61
2022/05/19 01:45:40;;;;;;;11.80;7.72;;;20.80;85.80;;;;;;4995557;28;20510;-61
2022/05/19 01:48:14;;;;;;;9.77;8.75;;;20.70;86.00;;;;;;4996212;28;20042;-61
2022/05/19 01:50:58;;;;;;;12.18;9.45;;;20.70;86.60;;;;;;4996759;28;20154;-60
2022/05/19 01:53:49;;;;;;;9.65;8.32;;;20.70;87.30;;;;;;4995913;28;20026;-61
2022/05/19 01:56:20;;;;;;;10.55;8.05;;;20.60;88.00;;;;;;4994054;28;20089;-60
2022/05/19 01:59:13;;;;;;;10.00;8.90;;;20.60;88.50;;;;;;4996247;28;20461;-60
2022/05/19 02:01:44;;;;;;;10.75;8.48;;;20.50;88.40;;;;;;4996001;28;20076;-60
2022/05/19 02:04:17;;;;;;;8.40;7.60;;;20.40;88.70;;;;;;4995719;28;20066;-61
2022/05/19 02:06:42;;;;;;;10.82;8.70;;;20.40;89.40;;;;;;4996137;28;20102;-59
2022/05/19 02:09:15;;;;;;;9.20;8.07;;;20.30;89.70;;;;;;4995970;28;20060;-61
2022/05/19 02:11:56;;;;;;;11.27;8.73;;;20.20;89.70;;;;;;4996071;28;20046;-60
2022/05/19 02:14:29;;;;;;;8.93;8.02;;;20.30;90.00;;;;;;4996360;28;20038;-59
2022/05/19 02:16:56;;;;;;;10.10;8.90;;;20.20;90.00;;;;;;4994101;28;20034;-58
2022/05/19 02:19:28;;;;;;;10.43;8.40;;;20.10;90.30;;;;;;4995598;28;20057;-59
2022/05/19 02:21:55;;;;;;;13.90;8.82;;;20.10;90.60;;;;;;4995693;28;20130;-58
2022/05/19 02:24:25;;;;;;;13.68;11.48;;;20.00;90.80;;;;;;4995065;28;20061;-60
2022/05/19 02:26:50;;;;;;;17.05;13.23;;;20.00;91.10;;;;;;4993666;28;20038;-61
2022/05/19 02:29:22;;;;;;;18.83;13.90;;;19.90;91.40;;;;;;4995148;28;20038;-61
2022/05/19 02:31:48;;;;;;;12.48;11.27;;;19.90;91.80;;;;;;4995091;28;20065;-57
2022/05/19 02:34:14;;;;;;;12.48;11.23;;;19.80;92.20;;;;;;4994368;28;20495;-60
2022/05/19 02:36:40;;;;;;;11.75;10.65;;;19.70;92.50;;;;;;4995214;28;20122;-58
2022/05/19 02:39:07;;;;;;;10.85;9.75;;;19.70;92.70;;;;;;4993444;28;20053;-61
2022/05/19 02:41:32;;;;;;;11.55;10.15;;;19.70;92.80;;;;;;4995062;28;20038;-61
2022/05/19 02:43:58;;;;;;;15.65;10.30;;;19.70;92.80;;;;;;4994287;28;20034;-58
2022/05/19 02:46:24;;;;;;;11.85;10.27;;;19.70;93.00;;;;;;4995522;28;20066;-57
2022/05/19 02:48:49;;;;;;;11.70;9.80;;;19.70;93.10;;;;;;4995832;28;20526;-60
2022/05/19 02:51:15;;;;;;;10.95;9.65;;;19.70;93.10;;;;;;4995589;28;20022;-61
2022/05/19 02:53:41;;;;;;;11.30;9.77;;;19.70;93.10;;;;;;4995274;28;20041;-61
2022/05/19 02:56:06;;;;;;;12.90;10.27;;;19.60;93.20;;;;;;4995508;28;20160;-56
2022/05/19 02:58:32;;;;;;;11.63;10.52;;;19.50;93.40;;;;;;4994878;28;20042;-61
2022/05/19 03:00:58;;;;;;;10.52;9.52;;;19.50;93.80;;;;;;4995090;28;20045;-62
2022/05/19 03:03:23;;;;;;;11.18;9.93;;;19.50;94.10;;;;;;4995117;28;20046;-61
2022/05/19 03:05:49;;;;;;;11.55;9.93;;;19.50;94.50;;;;;;4994348;28;20041;-62
2022/05/19 03:08:15;;;;;;;12.55;10.15;;;19.40;94.90;;;;;;4993157;28;20092;-59
2022/05/19 03:10:43;;;;;;;10.60;9.60;;;19.30;95.50;;;;;;4995036;28;20176;-61
2022/05/19 03:13:20;;;;;;;15.70;10.75;;;19.20;95.70;;;;;;4994491;28;20113;-58
2022/05/19 03:15:46;;;;;;;11.90;10.45;;;19.20;96.40;;;;;;4993932;28;20045;-60
2022/05/19 03:18:12;;;;;;;12.07;10.93;;;19.10;96.80;;;;;;4994918;28;20030;-58
2022/05/19 03:20:38;;;;;;;12.82;10.98;;;19.00;97.00;;;;;;4994597;28;20509;-61
2022/05/19 03:23:04;;;;;;;12.60;10.88;;;19.10;97.20;;;;;;4994726;28;20038;-62
2022/05/19 03:25:30;;;;;;;12.13;10.82;;;19.10;97.30;;;;;;4994246;28;20046;-60
2022/05/19 03:27:55;;;;;;;11.27;10.20;;;19.10;97.30;;;;;;4995547;28;20059;-59
2022/05/19 03:30:21;;;;;;;11.30;10.07;;;19.10;97.20;;;;;;4995127;28;20557;-60
2022/05/19 03:32:46;;;;;;;10.77;9.65;;;19.20;97.20;;;;;;4992529;28;20042;-59
2022/05/19 03:35:14;;;;;;;11.50;9.95;;;19.20;97.00;;;;;;4976769;28;20070;-61
2022/05/19 03:37:40;;;;;;;12.55;9.65;;;19.20;96.90;;;;;;4993872;28;20026;-57
2022/05/19 03:40:07;;;;;;;16.67;9.35;;;19.20;96.60;;;;;;4993035;28;20041;-59
2022/05/19 03:42:32;;;;;;;13.23;9.55;;;19.30;96.30;;;;;;4992940;28;20053;-60
2022/05/19 03:44:58;;;;;;;12.57;10.18;;;19.30;96.30;;;;;;4994539;28;20479;-57
2022/05/19 03:47:23;;;;;;;13.25;10.15;;;19.40;96.50;;;;;;4993730;28;20130;-58
2022/05/19 03:49:49;;;;;;;12.13;9.98;;;19.30;96.50;;;;;;4993636;28;20454;-62
2022/05/19 03:52:15;;;;;;;11.77;8.95;;;19.40;96.60;;;;;;4992724;28;20062;-60
2022/05/19 03:54:40;;;;;;;19.42;10.45;;;19.40;96.60;;;;;;4992775;28;20035;-60
2022/05/19 03:57:06;;;;;;;12.27;7.57;;;19.40;95.90;;;;;;4992124;28;20030;-60
2022/05/19 03:59:32;;;;;;;21.20;15.40;;;19.30;94.50;;;;;;4992924;28;20117;-60
2022/05/19 04:02:02;;;;;;;13.60;10.60;;;19.40;94.00;;;;;;4994299;28;20085;-61
2022/05/19 04:04:28;;;;;;;15.43;8.35;;;19.40;93.50;;;;;;4993640;28;20042;-60
2022/05/19 04:06:53;;;;;;;8.80;6.70;;;19.50;92.80;;;;;;4993364;28;20066;-61
2022/05/19 04:09:19;;;;;;;9.60;7.22;;;19.50;92.30;;;;;;4993237;28;20040;-59
2022/05/19 04:11:45;;;;;;;7.47;6.13;;;19.60;91.80;;;;;;4994106;28;20061;-60
2022/05/19 04:14:11;;;;;;;9.95;6.90;;;19.70;91.60;;;;;;4993159;28;20479;-60
2022/05/19 04:16:37;;;;;;;32.05;9.15;;;19.80;91.30;;;;;;4993588;28;20086;-58
2022/05/19 04:19:04;;;;;;;10.88;6.57;;;19.80;91.10;;;;;;4993641;28;20027;-60
2022/05/19 04:21:30;;;;;;;8.48;7.10;;;19.80;90.80;;;;;;4993829;28;20058;-59
2022/05/19 04:23:56;;;;;;;8.90;6.68;;;19.70;90.70;;;;;;4992754;28;20372;-62
2022/05/19 04:26:22;;;;;;;11.18;7.03;;;19.80;90.80;;;;;;4993029;28;20037;-59
2022/05/19 04:28:48;;;;;;;8.68;7.13;;;19.90;90.50;;;;;;4993488;28;20034;-61
2022/05/19 04:31:16;;;;;;;10.88;6.88;;;19.80;90.50;;;;;;4994048;28;20042;-60
2022/05/19 04:33:42;;;;;;;9.45;6.97;;;19.90;90.40;;;;;;4993786;28;20037;-61
2022/05/19 04:36:07;;;;;;;9.57;7.07;;;19.90;90.30;;;;;;4992659;28;20034;-60
2022/05/19 04:38:33;;;;;;;10.18;7.80;;;19.90;90.30;;;;;;4994267;28;20114;-59
2022/05/19 04:41:04;;;;;;;11.98;6.57;;;20.00;90.40;;;;;;4993256;28;20042;-59
2022/05/19 04:43:30;;;;;;;11.23;7.00;;;20.00;90.30;;;;;;4992987;28;20046;-61
2022/05/19 04:45:56;;;;;;;8.70;6.55;;;20.00;90.20;;;;;;4992905;28;20037;-58
2022/05/19 04:48:23;;;;;;;7.88;6.40;;;20.10;90.20;;;;;;4993324;28;20037;-59
2022/05/19 04:50:54;;;;;;;10.07;7.10;;;20.20;90.20;;;;;;4992940;28;20065;-60
2022/05/19 04:53:20;;;;;;;9.07;6.38;;;20.20;90.10;;;;;;4991711;28;20035;-60
2022/05/19 04:55:46;;;;;;;11.30;7.03;;;20.30;90.10;;;;;;4992767;28;20030;-62
2022/05/19 04:58:12;;;;;;;10.50;7.95;;;20.30;90.00;;;;;;4994500;28;20031;-61
2022/05/19 05:00:37;;;;;;;9.27;7.78;;;20.40;89.80;;;;;;4993954;28;20100;-61
2022/05/19 05:03:04;;;;;;;9.40;7.93;;;20.40;89.50;;;;;;4992893;28;20118;-61
2022/05/19 05:05:30;;;;;;;7.97;6.85;;;20.50;89.40;;;;;;4994193;28;20271;-61
2022/05/19 05:07:55;;;;;;;10.02;6.38;;;20.60;89.20;;;;;;4992256;28;20560;-60
2022/05/19 05:10:21;;;;;;;9.93;6.40;;;20.60;90.00;;;;;;4993300;28;20026;-59
2022/05/19 05:12:46;;;;;;;7.95;6.80;;;20.70;89.10;;;;;;4993208;28;20034;-60
2022/05/19 05:15:12;;;;;;;9.93;6.97;;;20.70;89.00;;;;;;4992789;28;20030;-59
2022/05/19 05:17:38;;;;;;;9.30;6.95;;;20.80;88.70;;;;;;4992230;28;20047;-61
2022/05/19 05:20:07;;;;;;;10.80;6.28;;;20.80;88.20;;;;;;4993039;28;20035;-61
2022/05/19 05:22:35;;;;;;;10.57;6.40;;;20.80;88.10;;;;;;4992391;28;20026;-57
2022/05/19 05:25:03;;;;;;;10.88;6.30;;;20.90;87.90;;;;;;4991919;28;20081;-58
2022/05/19 05:27:29;;;;;;;12.98;6.72;;;21.00;87.40;;;;;;4972616;28;20027;-60
2022/05/19 05:29:54;;;;;;;17.27;6.88;;;21.00;87.10;;;;;;4972534;28;20514;-59
2022/05/19 05:32:20;;;;;;;12.70;6.95;;;21.10;87.00;;;;;;4991787;28;20053;-58
2022/05/19 05:34:45;;;;;;;10.98;6.88;;;21.10;87.30;;;;;;4992872;28;20034;-59
2022/05/19 05:37:11;;;;;;;9.38;7.20;;;21.20;86.70;;;;;;4993128;28;20034;-59
2022/05/19 05:39:37;;;;;;;14.02;7.10;;;21.30;87.10;;;;;;4992759;28;20038;-62
2022/05/19 05:42:04;;;;;;;12.82;7.72;;;21.40;86.40;;;;;;4992433;28;20047;-55
2022/05/19 05:44:29;;;;;;;16.65;7.10;;;21.50;86.10;;;;;;4993076;28;20046;-59
2022/05/19 05:46:55;;;;;;;16.27;7.38;;;21.60;85.80;;;;;;4992014;28;20121;-59
2022/05/19 05:49:20;;;;;;;8.32;6.40;;;21.70;85.50;;;;;;4991098;28;20062;-59
2022/05/19 05:51:48;;;;;;;10.65;6.30;;;21.80;85.20;;;;;;4992848;28;20027;-59
2022/05/19 05:54:14;;;;;;;11.90;5.95;;;21.80;85.10;;;;;;4992366;28;20026;-57
2022/05/19 05:56:39;;;;;;;15.15;6.97;;;21.80;84.70;;;;;;4992118;28;20499;-61
2022/05/19 05:59:05;;;;;;;20.95;8.20;;;21.90;84.60;;;;;;4998855;28;20037;-58
2022/05/19 06:01:31;;;;;;;34.08;8.23;;;21.90;83.20;;;;;;5000345;28;20050;-59
2022/05/19 06:03:57;;;;;;;14.95;6.82;;;21.90;83.80;;;;;;4995980;28;20105;-60
2022/05/19 06:06:23;;;;;;;14.23;6.53;;;21.90;83.70;;;;;;4994399;28;20035;-60
2022/05/19 06:08:49;;;;;;;17.85;6.50;;;21.90;83.10;;;;;;4996450;28;20041;-57
2022/05/19 06:11:14;;;;;;;12.20;6.82;;;21.90;83.20;;;;;;4995802;28;20034;-59
2022/05/19 06:13:41;;;;;;;16.63;7.00;;;21.90;83.40;;;;;;4995607;28;20116;-58
2022/05/19 06:16:07;;;;;;;15.23;6.50;;;22.00;83.10;;;;;;4995343;28;20035;-60
2022/05/19 06:18:33;;;;;;;9.80;5.80;;;22.00;82.40;;;;;;4996002;28;20026;-56
2022/05/19 06:20:58;;;;;;;11.52;5.97;;;21.80;81.70;;;;;;4994367;28;20061;-57
2022/05/19 06:23:24;;;;;;;12.00;6.75;;;21.80;82.50;;;;;;4994817;28;20422;-60
2022/05/19 06:25:50;;;;;;;7.68;6.35;;;21.80;82.20;;;;;;4994195;28;20064;-60
2022/05/19 06:28:15;;;;;;;7.70;6.07;;;21.80;82.50;;;;;;4995982;28;20086;-60
2022/05/19 06:30:42;;;;;;;10.00;6.25;;;21.80;82.40;;;;;;4995597;28;20097;-59
2022/05/19 06:33:08;;;;;;;14.23;6.60;;;21.90;82.20;;;;;;4996063;28;20030;-60
2022/05/19 06:35:36;;;;;;;11.13;6.00;;;22.00;82.30;;;;;;4994092;28;20117;-57
2022/05/19 06:38:02;;;;;;;7.78;6.47;;;22.10;82.10;;;;;;4996120;28;20034;-60
2022/05/19 06:40:29;;;;;;;15.65;7.15;;;22.20;82.10;;;;;;4995534;28;20714;-61
2022/05/19 06:42:55;;;;;;;10.82;6.50;;;22.30;82.20;;;;;;4994572;28;20026;-59
2022/05/19 06:45:24;;;;;;;13.27;5.97;;;22.40;82.00;;;;;;4994667;28;20034;-59
2022/05/19 06:47:50;;;;;;;8.40;5.97;;;22.40;81.80;;;;;;4995102;28;20069;-58
2022/05/19 06:50:16;;;;;;;11.52;6.22;;;22.30;81.80;;;;;;4995666;28;20030;-59
2022/05/19 06:52:53;;;;;;;10.50;6.47;;;22.30;82.30;;;;;;4995620;28;20026;-60
2022/05/19 06:55:21;;;;;;;13.63;5.97;;;22.20;83.10;;;;;;4993637;28;20034;-61
2022/05/19 06:57:47;;;;;;;12.43;7.45;;;22.20;83.30;;;;;;4995649;28;20109;-59
2022/05/19 07:00:17;;;;;;;13.68;7.10;;;22.30;83.10;;;;;;4994474;28;20053;-60
2022/05/19 07:02:44;;;;;;;12.18;6.18;;;22.20;83.10;;;;;;4996454;28;20436;-60
2022/05/19 07:05:10;;;;;;;14.20;6.68;;;22.30;83.40;;;;;;4995585;28;20050;-59
2022/05/19 07:07:36;;;;;;;18.70;6.95;;;22.50;83.20;;;;;;4994793;28;20025;-61
2022/05/19 07:10:02;;;;;;;24.38;8.13;;;22.80;82.80;;;;;;4994292;28;20034;-61
2022/05/19 07:12:28;;;;;;;34.05;7.50;;;22.60;82.40;;;;;;4994524;28;20109;-59
2022/05/19 07:14:54;;;;;;;22.77;6.53;;;22.80;83.40;;;;;;4994067;28;20482;-56
2022/05/19 07:17:20;;;;;;;11.32;6.40;;;22.90;83.60;;;;;;4995120;28;20027;-59
2022/05/19 07:22:33;;;;;;;7.63;5.60;;;22.90;82.40;;;;;;4994711;28;20034;-58
2022/05/19 07:25:01;;;;;;;10.73;5.70;;;23.00;82.10;;;;;;4993661;28;20039;-59
2022/05/19 07:27:26;;;;;;;10.35;5.60;;;23.10;82.50;;;;;;4994536;28;20062;-57
2022/05/19 07:29:52;;;;;;;8.52;5.50;;;23.20;83.10;;;;;;4993643;28;20615;-61
2022/05/19 07:32:18;;;;;;;10.95;6.53;;;23.30;81.50;;;;;;4995704;28;20109;-61
2022/05/19 07:34:43;;;;;;;8.25;5.68;;;23.30;81.00;;;;;;4994588;28;20026;-59
2022/05/19 07:37:12;;;;;;;9.23;5.88;;;23.30;81.20;;;;;;4993842;28;20046;-56
2022/05/19 07:39:38;;;;;;;17.42;6.13;;;23.30;81.80;;;;;;4994532;28;20023;-53
2022/05/19 07:42:04;;;;;;;28.95;7.90;;;23.40;81.80;;;;;;4994585;28;20372;-52
2022/05/19 07:44:30;;;;;;;8.90;6.05;;;23.60;82.00;;;;;;4994815;28;20065;-57
2022/05/19 07:46:56;;;;;;;8.50;5.88;;;23.80;81.70;;;;;;4992523;28;20038;-57
2022/05/19 07:49:21;;;;;;;10.48;6.28;;;23.90;81.80;;;;;;4994974;28;20039;-55
2022/05/19 07:51:48;;;;;;;10.02;5.45;;;24.00;81.40;;;;;;4994066;28;20030;-60
2022/05/19 07:54:24;;;;;;;8.30;6.18;;;24.10;81.30;;;;;;4997934;28;20022;-59
2022/05/19 07:56:50;;;;;;;8.80;6.03;;;24.30;80.70;;;;;;4999740;28;20035;-55
2022/05/19 07:59:16;;;;;;;11.77;6.85;;;24.30;80.20;;;;;;4995494;28;20073;-59
2022/05/19 08:01:43;;;;;;;16.80;6.93;;;24.20;80.20;;;;;;4995093;28;20049;-57
2022/05/19 08:04:10;;;;;;;9.57;6.20;;;24.10;79.90;;;;;;4994894;28;20041;-54
2022/05/19 08:06:37;;;;;;;9.95;6.05;;;24.10;80.00;;;;;;4994086;28;20035;-61
2022/05/19 08:10:20;;;;;;;11.07;6.07;;;24.20;80.00;;;;;;4994255;28;20041;-55
2022/05/19 08:11:49;;;;;;;11.45;6.07;;;24.10;80.80;;;;;;4994162;28;20030;-53
2022/05/19 08:16:59;;;;;;;13.43;6.60;;;24.20;80.60;;;;;;4994587;28;20044;-55
2022/05/19 08:19:25;;;;;;;18.17;6.40;;;24.30;80.70;;;;;;4994658;28;20038;-54
2022/05/19 08:21:50;;;;;;;14.80;6.10;;;24.40;79.90;;;;;;4992078;28;20030;-56
2022/05/19 08:24:16;;;;;;;10.07;6.20;;;24.40;80.40;;;;;;4991128;28;20072;-55
2022/05/19 08:26:42;;;;;;;11.48;5.97;;;24.60;80.40;;;;;;4992438;28;20068;-57
2022/05/19 08:29:08;;;;;;;11.32;5.80;;;24.60;80.20;;;;;;4993414;28;20076;-56
2022/05/19 08:31:33;;;;;;;12.77;6.47;;;24.80;79.60;;;;;;4993614;28;20057;-55
2022/05/19 08:34:03;;;;;;;11.93;5.95;;;24.90;78.60;;;;;;4994148;28;20038;-57
2022/05/19 08:36:31;;;;;;;10.50;5.93;;;24.70;78.30;;;;;;4992818;28;20034;-56
2022/05/19 08:38:57;;;;;;;27.23;7.43;;;24.60;78.60;;;;;;4992811;28;20129;-56
2022/05/19 08:41:40;;;;;;;19.05;7.15;;;24.80;78.50;;;;;;4993768;28;20085;-60
2022/05/19 08:44:11;;;;;;;33.00;6.78;;;24.80;79.20;;;;;;4992786;28;20397;-58
2022/05/19 08:46:40;;;;;;;11.68;5.72;;;25.00;79.00;;;;;;4992670;28;20057;-62
2022/05/19 08:49:12;;;;;;;7.53;5.80;;;24.90;78.50;;;;;;4994087;28;20544;-57
2022/05/19 08:51:44;;;;;;;12.75;6.05;;;24.80;77.80;;;;;;4993923;28;20030;-58
2022/05/19 08:54:14;;;;;;;12.50;6.03;;;24.80;78.70;;;;;;4993434;28;20029;-56
2022/05/19 08:56:47;;;;;;;20.88;6.22;;;25.00;77.80;;;;;;4994050;28;20039;-59
2022/05/19 08:59:45;;;;;;;17.27;7.47;;;25.20;77.70;;;;;;4994972;28;20116;-60
2022/05/19 09:02:16;;;;;;;9.30;5.05;;;25.50;77.10;;;;;;4993858;28;20091;-60
2022/05/19 09:05:03;;;;;;;12.60;5.82;;;25.70;76.80;;;;;;4993586;28;20126;-60
2022/05/19 09:08:13;;;;;;;10.95;6.30;;;25.90;76.30;;;;;;4989472;28;20023;-57
2022/05/19 09:10:45;;;;;;;15.13;5.78;;;26.00;74.70;;;;;;4990286;28;20049;-54
2022/05/19 09:13:16;;;;;;;10.27;5.20;;;25.70;75.10;;;;;;4993188;28;20036;-53
2022/05/19 09:15:44;;;;;;;10.35;5.47;;;25.80;75.80;;;;;;4992307;28;20458;-58
2022/05/19 09:18:12;;;;;;;31.30;9.07;;;25.90;75.30;;;;;;4993631;28;20449;-59
2022/05/19 09:20:42;;;;;;;16.13;6.38;;;25.90;74.80;;;;;;4993531;28;20057;-60
2022/05/19 09:23:08;;;;;;;15.00;5.55;;;25.80;73.00;;;;;;4992888;28;20037;-58
2022/05/19 09:25:39;;;;;;;19.95;6.55;;;25.70;73.90;;;;;;4992084;28;20034;-60
2022/05/19 09:28:28;;;;;;;21.00;6.38;;;25.80;73.70;;;;;;4992760;28;20467;-57
2022/05/19 09:30:56;;;;;;;14.77;5.82;;;25.80;73.50;;;;;;4993733;28;20030;-58
2022/05/19 09:33:34;;;;;;;11.13;5.88;;;26.00;73.40;;;;;;4993517;28;20022;-57
2022/05/19 09:36:00;;;;;;;13.55;5.45;;;26.00;73.20;;;;;;4993418;28;20035;-61
2022/05/19 09:38:36;;;;;;;8.48;5.40;;;26.10;73.10;;;;;;4996067;28;20041;-59
2022/05/19 09:41:06;;;;;;;12.40;5.57;;;26.20;72.40;;;;;;4996102;28;20034;-55
2022/05/19 09:43:36;;;;;;;65.53;11.10;;;26.20;71.80;;;;;;4996701;28;20034;-59
2022/05/19 09:46:14;;;;;;;8.45;5.78;;;26.30;71.90;;;;;;4995879;28;20526;-59
2022/05/19 09:48:57;;;;;;;12.43;5.70;;;26.30;70.60;;;;;;4997710;28;20030;-57
2022/05/19 09:51:32;;;;;;;15.32;6.00;;;26.30;70.70;;;;;;4996370;28;20506;-56
2022/05/19 09:54:04;;;;;;;10.32;5.53;;;26.30;70.70;;;;;;4997038;28;20054;-57
2022/05/19 09:56:42;;;;;;;13.65;5.53;;;26.10;69.80;;;;;;4997591;28;20034;-58
2022/05/19 09:59:15;;;;;;;18.42;6.57;;;26.10;70.00;;;;;;4996106;28;20030;-60
2022/05/19 10:01:47;;;;;;;12.80;5.57;;;26.20;70.20;;;;;;4996010;28;20054;-61
2022/05/19 10:04:25;;;;;;;11.82;5.20;;;26.30;70.10;;;;;;4996483;28;20069;-57
2022/05/19 10:07:06;;;;;;;9.90;5.40;;;26.30;71.50;;;;;;4996039;28;20093;-59
2022/05/19 10:09:37;;;;;;;9.48;4.85;;;26.30;68.80;;;;;;4993150;28;20406;-57
2022/05/19 10:12:19;;;;;;;13.80;5.63;;;26.30;68.80;;;;;;4995668;28;20100;-53
2022/05/19 10:14:51;;;;;;;9.95;4.75;;;26.40;69.90;;;;;;4993248;28;20518;-57
2022/05/19 10:17:35;;;;;;;8.70;4.47;;;26.40;68.10;;;;;;4991243;28;20101;-60
2022/05/19 10:20:19;;;;;;;;;;;26.60;69.50;;;;;;4997307;28;20050;-58
2022/05/19 10:22:51;;;;;;;7.22;4.80;;;26.70;65.70;;;;;;4996727;28;19912;-56
2022/05/19 10:25:54;;;;;;;9.82;4.57;;;26.70;66.10;;;;;;4996013;28;20034;-54
2022/05/19 10:31:48;;;;;;;15.48;5.03;;;26.80;67.10;;;;;;4996179;28;20398;-56
2022/05/19 10:35:48;;;;;;;16.00;5.68;;;26.80;67.30;;;;;;4995892;28;20654;-55
2022/05/19 10:38:17;;;;;;;10.25;4.88;;;27.00;67.80;;;;;;4975846;28;20052;-54
2022/05/19 10:41:00;;;;;;;8.75;4.15;;;27.30;67.90;;;;;;4968001;28;20046;-53
2022/05/19 10:43:45;;;;;;;9.43;4.32;;;27.70;67.50;;;;;;4994689;28;20034;-59
2022/05/19 10:46:14;;;;;;;11.43;5.28;;;27.90;66.70;;;;;;4994265;28;20061;-54
2022/05/19 10:48:44;;;;;;;9.77;4.63;;;28.00;65.60;;;;;;4990238;28;20038;-60
2022/05/19 10:51:39;;;;;;;8.73;4.38;;;28.10;65.10;;;;;;4996515;28;20019;-59
2022/05/19 10:54:35;;;;;;;6.95;4.68;;;28.00;63.10;;;;;;4990658;28;20061;-58
2022/05/19 10:57:13;;;;;;;7.35;4.22;;;28.10;62.50;;;;;;4995021;28;20401;-59
2022/05/19 10:59:47;;;;;;;7.20;4.32;;;27.90;63.70;;;;;;4995848;28;20038;-58
2022/05/19 11:02:37;;;;;;;8.63;4.32;;;27.90;62.90;;;;;;4996032;28;20041;-56
2022/05/19 11:05:49;;;;;;;8.68;4.28;;;28.00;62.10;;;;;;4996353;28;20034;-59
2022/05/19 11:08:24;;;;;;;7.10;3.53;;;28.00;59.50;;;;;;4994662;28;20052;-60
2022/05/19 11:10:52;;;;;;;5.25;3.58;;;27.90;59.00;;;;;;4994381;28;20018;-56
2022/05/19 11:13:34;;;;;;;7.43;3.78;;;28.00;59.40;;;;;;4995608;28;20031;-56
2022/05/19 11:16:12;;;;;;;8.77;4.00;;;28.00;59.50;;;;;;4996321;28;20369;-59
2022/05/19 11:19:06;;;;;;;8.00;3.95;;;28.00;59.70;;;;;;4997391;28;20041;-58
2022/05/19 11:21:44;;;;;;;8.65;4.40;;;28.20;59.40;;;;;;4997744;28;20034;-54
2022/05/19 11:24:30;;;;;;;16.80;4.57;;;28.30;59.40;;;;;;4995630;28;20110;-53
2022/05/19 11:27:17;;;;;;;5.90;3.80;;;28.40;59.40;;;;;;4994535;28;20038;-55
2022/05/19 11:29:52;;;;;;;8.05;3.97;;;28.30;59.20;;;;;;4995045;28;20145;-57
2022/05/19 11:32:33;;;;;;;5.85;3.58;;;28.20;58.40;;;;;;4994683;28;20030;-57
2022/05/19 11:35:05;;;;;;;7.47;4.38;;;28.00;58.60;;;;;;4995122;28;20126;-57
2022/05/19 11:37:39;;;;;;;8.30;4.18;;;27.80;58.30;;;;;;4995465;28;20516;-57
2022/05/19 11:40:15;;;;;;;7.07;3.70;;;27.70;58.10;;;;;;4994171;28;20100;-57
2022/05/19 11:42:46;;;;;;;6.65;3.65;;;27.80;58.80;;;;;;4995193;28;20122;-58
2022/05/19 11:45:40;;;;;;;7.20;3.90;;;27.90;58.20;;;;;;4994677;28;20030;-60
2022/05/19 11:57:23;;;;;;;;;;;27.30;57.10;;;;;;4994293;28;20061;-57
2022/05/19 11:59:55;;;;;;;4.97;3.47;;;27.40;57.80;;;;;;4994100;28;19964;-57
2022/05/19 12:02:26;;;;;;;7.43;3.47;;;27.60;57.60;;;;;;4994842;28;20577;-61
2022/05/19 12:05:10;;;;;;;12.13;4.10;;;27.90;57.80;;;;;;4993722;28;20462;-58
2022/05/19 12:07:52;;;;;;;6.88;3.70;;;28.10;57.20;;;;;;4994567;28;20034;-59
2022/05/19 12:10:24;;;;;;;7.78;4.68;;;28.30;57.20;;;;;;4990393;28;20042;-58
2022/05/19 12:13:00;;;;;;;16.05;4.97;;;28.40;57.30;;;;;;4976670;28;20491;-53
2022/05/19 12:15:51;;;;;;;9.93;4.30;;;28.30;57.60;;;;;;4993918;28;20030;-52
2022/05/19 12:18:22;;;;;;;8.00;3.47;;;28.40;57.80;;;;;;4994171;28;20080;-49
2022/05/19 12:21:16;;;;;;;7.93;3.33;;;28.50;57.30;;;;;;4994438;28;20030;-49
2022/05/19 12:23:43;;;;;;;6.30;3.75;;;28.40;57.10;;;;;;4994148;28;20038;-55
2022/05/19 12:26:18;;;;;;;5.38;3.13;;;28.50;57.70;;;;;;4992088;28;20498;-53
2022/05/19 12:28:57;;;;;;;13.35;3.92;;;28.60;56.90;;;;;;4993804;28;20111;-56
2022/05/19 12:31:59;;;;;;;5.85;3.53;;;28.60;56.50;;;;;;4992908;28;20088;-56
2022/05/19 12:34:50;;;;;;;5.53;3.50;;;28.80;56.80;;;;;;4993622;28;20038;-48
2022/05/19 12:37:15;;;;;;;24.23;5.05;;;28.80;56.30;;;;;;4993489;28;20038;-52
2022/05/19 12:39:48;;;;;;;50.80;6.97;;;28.50;56.40;;;;;;4993066;28;20034;-52
2022/05/19 12:42:36;;;;;;;22.42;3.97;;;28.70;56.70;;;;;;4993789;28;20033;-54
2022/05/19 12:45:18;;;;;;;8.70;3.42;;;29.00;56.20;;;;;;4993938;28;20026;-58
2022/05/19 12:47:59;;;;;;;8.20;4.05;;;29.10;56.20;;;;;;4992207;28;20096;-54
2022/05/19 12:51:11;;;;;;;19.98;4.63;;;29.10;55.80;;;;;;4993991;28;20496;-54
2022/05/19 12:53:42;;;;;;;14.50;4.50;;;29.30;55.30;;;;;;4994410;28;20065;-53
2022/05/19 12:56:09;;;;;;;10.15;7.07;;;29.40;55.40;;;;;;4994195;28;20027;-50
2022/05/19 12:58:42;;;;;;;6.97;4.15;;;29.50;55.20;;;;;;4993078;28;20027;-52
2022/05/19 13:01:29;;;;;;;12.03;4.73;;;29.70;54.90;;;;;;4993564;28;20117;-54
2022/05/19 13:04:16;;;;;;;7.10;5.13;;;29.80;54.90;;;;;;4993568;28;20034;-55
2022/05/19 13:06:57;;;;;;;7.60;4.45;;;29.90;54.50;;;;;;4993969;28;20045;-55
2022/05/19 13:09:29;;;;;;;9.23;3.72;;;30.00;54.50;;;;;;4989763;28;20022;-55
2022/05/19 13:12:15;;;;;;;12.73;3.78;;;30.20;54.40;;;;;;4995381;28;20031;-55
2022/05/19 13:14:47;;;;;;;10.60;4.32;;;30.30;53.80;;;;;;4998080;28;20050;-54
2022/05/19 13:17:20;;;;;;;7.78;4.00;;;30.50;54.20;;;;;;4997595;28;20030;-55
2022/05/19 13:19:46;;;;;;;8.23;3.70;;;30.60;54.20;;;;;;4998000;28;20449;-54
2022/05/19 13:22:24;;;;;;;19.02;5.70;;;30.70;54.00;;;;;;4997683;28;20035;-55